createdAt,value
2023-02-03T00:02:13.664Z,101433.44
2023-02-03T00:04:42.006Z,101435.97
2023-02-03T00:07:15.133Z,101439.19
2023-02-03T00:09:43.802Z,101438.47
2023-02-03T00:12:12.250Z,101430.63
2023-02-03T00:14:40.545Z,101417.22
2023-02-03T00:17:09.029Z,101414.06
2023-02-03T00:19:37.503Z,101402.75
2023-02-03T00:22:05.976Z,101397.56
2023-02-03T00:24:35.636Z,101386.97
2023-02-03T00:27:03.942Z,101377.41
2023-02-03T00:29:32.259Z,101364.16
2023-02-03T00:32:00.760Z,101353.66
2023-02-03T00:34:30.355Z,101348.38
2023-02-03T00:36:59.469Z,101350.22
2023-02-03T00:39:27.845Z,101338.13
2023-02-03T00:41:57.578Z,101323.84
2023-02-03T00:44:26.323Z,101315.81
2023-02-03T00:46:54.580Z,101291.38
2023-02-03T00:49:23.037Z,101289.69
2023-02-03T00:51:51.874Z,101270.25
2023-02-03T00:54:21.085Z,101262.34
2023-02-03T00:56:49.575Z,101265.06
2023-02-03T00:59:19.593Z,101254.41
2023-02-03T01:01:49.726Z,101251.66
2023-02-03T01:04:18.153Z,101251.66
2023-02-03T01:06:46.450Z,101244.53
2023-02-03T01:09:14.892Z,101234.66
2023-02-03T01:11:43.350Z,101226.66
2023-02-03T01:14:12.135Z,101219.50
2023-02-03T01:16:41.987Z,101206.25
2023-02-03T01:19:11.132Z,101207.09
2023-02-03T01:21:39.465Z,101204.38
2023-02-03T01:24:09.625Z,101210.97
2023-02-03T01:26:38.535Z,101200.25
2023-02-03T01:29:06.982Z,101197.50
2023-02-03T01:31:40.061Z,101190.34
2023-02-03T01:34:16.449Z,101191.22
2023-02-03T01:36:46.076Z,101179.50
2023-02-03T01:39:15.272Z,101170.41
2023-02-03T01:41:44.576Z,101157.00
2023-02-03T01:44:42.207Z,101154.81
2023-02-03T01:47:24.278Z,101152.25
2023-02-03T01:50:04.752Z,101132.69
2023-02-03T01:52:34.827Z,101130.53
2023-02-03T01:55:09.216Z,101144.31
2023-02-03T01:57:45.050Z,101138.75
2023-02-03T02:00:15.673Z,101125.91
2023-02-03T02:02:46.869Z,101117.94
2023-02-03T02:05:26.629Z,101103.88
2023-02-03T02:07:57.917Z,101098.63
2023-02-03T02:10:27.529Z,101082.56
2023-02-03T02:12:57.953Z,101074.28
2023-02-03T02:15:42.158Z,101062.81
2023-02-03T02:18:29.945Z,101059.78
2023-02-03T02:21:47.645Z,101063.13
2023-02-03T02:25:13.784Z,101042.47
2023-02-03T02:28:28.825Z,101033.13
2023-02-03T02:31:33.782Z,101032.91
2023-02-03T02:34:16.135Z,101027.16
2023-02-03T02:37:02.869Z,101011.81
2023-02-03T02:39:44.528Z,101010.06
2023-02-03T02:42:25.903Z,100996.03
2023-02-03T02:45:06.260Z,100983.72
2023-02-03T02:47:35.947Z,100974.03
2023-02-03T02:50:12.943Z,100975.34
2023-02-03T02:52:47.191Z,100971.03
2023-02-03T02:55:24.689Z,100974.56
2023-02-03T02:57:58.499Z,100958.00
2023-02-03T03:00:28.366Z,100956.84
2023-02-03T03:02:58.714Z,100963.56
2023-02-03T03:05:30.182Z,100958.34
2023-02-03T03:08:03.006Z,100946.59
2023-02-03T03:10:35.821Z,100932.06
2023-02-03T03:13:12.541Z,100928.91
2023-02-03T03:15:44.325Z,100918.72
2023-02-03T03:18:20.908Z,100916.66
2023-02-03T03:20:54.305Z,100907.50
2023-02-03T03:23:30.007Z,100898.97
2023-02-03T03:26:10.825Z,100903.94
2023-02-03T03:28:49.289Z,100893.56
2023-02-03T03:31:20.686Z,100887.03
2023-02-03T03:33:52.543Z,100879.56
2023-02-03T03:36:28.948Z,100877.25
2023-02-03T03:39:05.136Z,100878.25
2023-02-03T03:41:44.780Z,100863.94
2023-02-03T03:44:18.276Z,100870.63
2023-02-03T03:46:53.305Z,100862.09
2023-02-03T03:49:26.664Z,100856.31
2023-02-03T03:52:02.675Z,100836.47
2023-02-03T03:54:34.625Z,100831.56
2023-02-03T03:57:15.582Z,100832.91
2023-02-03T03:59:50.273Z,100840.69
2023-02-03T04:02:22.327Z,100832.16
2023-02-03T04:04:53.931Z,100831.78
2023-02-03T04:07:22.227Z,100819.91
2023-02-03T04:09:50.815Z,100820.28
2023-02-03T04:12:25.411Z,100834.09
2023-02-03T04:14:53.885Z,100820.56
2023-02-03T04:17:23.967Z,100818.97
2023-02-03T04:19:53.682Z,100818.00
2023-02-03T04:22:24.855Z,100812.59
2023-02-03T04:24:53.268Z,100807.00
2023-02-03T04:27:22.460Z,100805.06
2023-02-03T04:29:51.143Z,100796.97
2023-02-03T04:32:20.990Z,100795.47
2023-02-03T04:34:49.369Z,100780.81
2023-02-03T04:37:21.182Z,100775.25
2023-02-03T04:39:50.044Z,100758.41
2023-02-03T04:42:20.521Z,100774.97
2023-02-03T04:44:49.127Z,100748.41
2023-02-03T04:47:19.352Z,100756.28
2023-02-03T04:49:48.256Z,100744.50
2023-02-03T04:52:18.177Z,100746.47
2023-02-03T04:54:46.647Z,100736.78
2023-02-03T04:57:15.299Z,100723.25
2023-02-03T04:59:43.922Z,100733.16
2023-02-03T05:02:12.345Z,100719.94
2023-02-03T05:04:40.895Z,100712.78
2023-02-03T05:07:09.336Z,100717.13
2023-02-03T05:09:39.118Z,100705.53
2023-02-03T05:12:08.054Z,100706.38
2023-02-03T05:14:36.467Z,100697.44
2023-02-03T05:17:04.910Z,100703.53
2023-02-03T05:19:33.300Z,100701.50
2023-02-03T05:22:05.310Z,100692.84
2023-02-03T05:24:33.993Z,100687.31
2023-02-03T05:27:03.794Z,100675.78
2023-02-03T05:29:32.343Z,100683.78
2023-02-03T05:32:00.784Z,100668.53
2023-02-03T05:34:29.347Z,100674.94
2023-02-03T05:36:57.815Z,100655.22
2023-02-03T05:39:26.195Z,100664.06
2023-02-03T05:41:55.404Z,100661.41
2023-02-03T05:44:29.268Z,100644.53
2023-02-03T05:47:00.411Z,100642.72
2023-02-03T05:49:28.785Z,100627.50
2023-02-03T05:51:57.468Z,100623.19
2023-02-03T05:54:25.961Z,100621.28
2023-02-03T05:56:54.722Z,100615.84
2023-02-03T05:59:25.920Z,100610.41
2023-02-03T06:01:55.608Z,100591.63
2023-02-03T06:04:23.985Z,100608.50
2023-02-03T06:06:54.607Z,100595.16
2023-02-03T06:09:23.047Z,100579.78
2023-02-03T06:11:51.381Z,100579.47
2023-02-03T06:14:20.576Z,100574.34
2023-02-03T06:16:49.570Z,100572.63
2023-02-03T06:19:22.722Z,100565.41
2023-02-03T06:21:51.480Z,100549.38
2023-02-03T06:24:20.988Z,100565.16
2023-02-03T06:26:49.309Z,100569.47
2023-02-03T06:29:18.214Z,100563.47
2023-02-03T06:31:46.742Z,100563.25
2023-02-03T06:34:15.535Z,100546.41
2023-02-03T06:36:45.263Z,100540.22
2023-02-03T06:39:13.649Z,100537.44
2023-02-03T06:41:41.977Z,100527.81
2023-02-03T06:44:10.378Z,100517.16
2023-02-03T06:46:39.166Z,100509.91
2023-02-03T06:49:07.530Z,100516.94
2023-02-03T06:51:36.351Z,100521.44
2023-02-03T06:54:07.782Z,100507.25
2023-02-03T06:56:36.199Z,100503.63
2023-02-03T06:59:05.336Z,100517.81
2023-02-03T07:01:34.074Z,100523.16
2023-02-03T07:04:02.671Z,100503.50
2023-02-03T07:06:34.299Z,100476.06
2023-02-03T07:09:06.926Z,100491.13
2023-02-03T07:11:38.486Z,100489.41
2023-02-03T07:14:07.900Z,100483.00
2023-02-03T08:07:47.176Z,100483.97
2023-02-03T08:10:18.202Z,100459.44
2023-02-03T08:12:48.601Z,100474.22
2023-02-03T08:15:18.598Z,100468.47
2023-02-03T08:17:51.031Z,100463.13
2023-02-03T08:20:21.398Z,100468.47
2023-02-03T08:22:52.206Z,100469.31
2023-02-03T08:25:24.256Z,100468.25
2023-02-03T08:27:55.840Z,100464.84
2023-02-03T08:30:26.480Z,100459.50
2023-02-03T08:32:57.099Z,100473.78
2023-02-03T08:35:27.257Z,100487.31
2023-02-03T08:37:58.899Z,100488.34
2023-02-03T08:40:28.804Z,100492.19
2023-02-03T08:42:58.611Z,100497.81
2023-02-03T08:45:27.995Z,100505.41
2023-02-03T08:47:56.561Z,100514.16
2023-02-03T08:50:25.482Z,100507.09
2023-02-03T08:52:53.992Z,100510.50
2023-02-03T08:55:25.030Z,100530.56
2023-02-03T08:57:53.512Z,100531.22
2023-02-03T09:00:23.483Z,100515.00
2023-02-03T09:02:52.133Z,100543.72
2023-02-03T09:05:21.207Z,100556.19
2023-02-03T09:07:51.972Z,100559.41
2023-02-03T09:10:25.170Z,100560.78
2023-02-03T09:12:53.998Z,100563.91
2023-02-03T09:15:22.515Z,100567.97
2023-02-03T09:17:51.034Z,100576.38
2023-02-03T09:20:20.022Z,100586.06
2023-02-03T09:22:48.511Z,100572.53
2023-02-03T09:25:17.814Z,100584.75
2023-02-03T09:27:48.274Z,100564.16
2023-02-03T09:30:19.587Z,100577.38
2023-02-03T09:32:54.228Z,100579.84
2023-02-03T09:35:23.046Z,100578.44
2023-02-03T09:37:51.673Z,100597.84
2023-02-03T09:40:28.633Z,100595.81
2023-02-03T09:43:16.912Z,100602.25
2023-02-03T09:45:45.393Z,100588.28
2023-02-03T09:48:20.345Z,100590.94
2023-02-03T09:50:52.949Z,100585.94
2023-02-03T09:53:34.829Z,100575.00
2023-02-03T09:56:05.165Z,100569.75
2023-02-03T09:58:36.504Z,100577.97
2023-02-03T10:01:13.363Z,100529.91
2023-02-03T10:03:50.053Z,100590.16
2023-02-03T10:06:31.156Z,100556.78
2023-02-03T10:09:28.207Z,100571.03
2023-02-03T10:12:25.090Z,100561.50
2023-02-03T10:15:21.792Z,100571.53
2023-02-03T10:17:57.553Z,100586.81
2023-02-03T10:20:42.050Z,100570.16
2023-02-03T10:23:16.013Z,100571.25
2023-02-03T10:25:57.394Z,100582.25
2023-02-03T10:28:31.417Z,100555.56
2023-02-03T10:31:05.748Z,100584.66
2023-02-03T10:33:35.732Z,100567.53
2023-02-03T10:36:19.208Z,100577.78
2023-02-03T10:39:00.793Z,100577.25
2023-02-03T10:41:32.729Z,100596.91
2023-02-03T10:44:07.522Z,100596.19
2023-02-03T10:46:42.135Z,100595.00
2023-02-03T10:49:13.431Z,100583.56
2023-02-03T10:51:49.346Z,100592.13
2023-02-03T10:54:33.556Z,100598.41
2023-02-03T10:57:12.593Z,100605.41
2023-02-03T10:59:46.076Z,100595.88
2023-02-03T11:02:29.342Z,100616.28
2023-02-03T11:05:19.533Z,100602.25
2023-02-03T11:07:48.526Z,100605.13
2023-02-03T11:10:35.920Z,100593.41
2023-02-03T11:13:21.766Z,100609.84
2023-02-03T11:15:58.826Z,100612.28
2023-02-03T11:18:52.863Z,100607.28
2023-02-03T11:21:25.020Z,100620.31
2023-02-03T11:24:04.675Z,100617.22
2023-02-03T11:26:40.836Z,100602.16
2023-02-03T11:29:22.802Z,100617.97
2023-02-03T11:31:56.413Z,100623.09
2023-02-03T11:34:32.265Z,100616.69
2023-02-03T11:37:27.656Z,100621.81
2023-02-03T11:39:58.085Z,100615.75
2023-02-03T11:42:27.449Z,100618.41
2023-02-03T11:45:15.807Z,100605.69
2023-02-03T11:47:49.196Z,100612.31
2023-02-03T11:50:32.057Z,100631.63
2023-02-03T11:53:24.237Z,100619.91
2023-02-03T11:56:18.563Z,100616.88
2023-02-03T11:59:24.871Z,100608.78
2023-02-03T12:02:45.661Z,100617.31
2023-02-03T12:05:47.139Z,100631.44
2023-02-03T12:08:45.818Z,100632.03
2023-02-03T12:11:30.570Z,100628.31
2023-02-03T12:14:19.248Z,100622.22
2023-02-03T12:17:27.635Z,100628.50
2023-02-03T12:20:21.906Z,100626.81
2023-02-03T12:23:06.193Z,100623.09
2023-02-03T12:25:54.141Z,100613.28
2023-02-03T12:28:44.030Z,100632.94
2023-02-03T12:31:24.728Z,100634.44
2023-02-03T12:34:02.899Z,100620.75
2023-02-03T12:36:41.054Z,100645.00
2023-02-03T12:39:23.006Z,100657.28
2023-02-03T12:42:11.931Z,100641.03
2023-02-03T12:44:49.491Z,100643.81
2023-02-03T12:47:29.261Z,100645.09
2023-02-03T12:50:04.166Z,100654.59
2023-02-03T12:52:38.914Z,100668.59
2023-02-03T12:55:26.398Z,100667.09
2023-02-03T12:58:03.165Z,100664.53
2023-02-03T13:00:44.007Z,100677.88
2023-02-03T13:03:26.209Z,100678.28
2023-02-03T13:06:09.434Z,100666.03
2023-02-03T13:08:45.328Z,100675.69
2023-02-03T13:11:29.290Z,100678.00
2023-02-03T13:14:05.115Z,100684.09
2023-02-03T13:16:41.045Z,100694.88
2023-02-03T13:19:20.736Z,100715.13
2023-02-03T13:21:50.778Z,100698.41
2023-02-03T13:24:26.797Z,100698.41
2023-02-03T13:27:28.245Z,100709.72
2023-02-03T13:30:22.701Z,100703.31
2023-02-03T13:33:27.833Z,100697.22
2023-02-03T13:36:13.570Z,100713.72
2023-02-03T13:39:16.017Z,100713.53
2023-02-03T13:41:51.052Z,100706.72
2023-02-03T13:44:28.387Z,100689.66
2023-02-03T13:47:01.842Z,100724.97
2023-02-03T13:49:35.572Z,100735.25
2023-02-03T13:52:05.018Z,100710.53
2023-02-03T13:54:44.420Z,100740.88
2023-02-03T13:57:24.498Z,100745.56
2023-02-03T13:59:54.948Z,100752.41
2023-02-03T14:02:55.117Z,100734.13
2023-02-03T14:05:49.202Z,100767.06
2023-02-03T14:08:53.680Z,100765.34
2023-02-03T14:11:52.784Z,100769.84
2023-02-03T14:15:04.744Z,100748.59
2023-02-03T14:18:03.827Z,100774.41
2023-02-03T14:20:57.958Z,100765.94
2023-02-03T14:23:46.704Z,100762.69
2023-02-03T14:26:25.897Z,100731.09
2023-02-03T14:28:54.640Z,100746.88
2023-02-03T14:31:28.361Z,100739.34
2023-02-03T14:34:13.250Z,100760.88
2023-02-03T14:36:57.243Z,100755.69
2023-02-03T14:40:15.146Z,100754.97
2023-02-03T14:43:27.403Z,100706.13
2023-02-03T14:46:36.634Z,100760.69
2023-02-03T14:49:42.869Z,100768.69
2023-02-03T14:52:35.213Z,100785.44
2023-02-03T14:55:30.889Z,100788.31
2023-02-03T14:58:05.866Z,100792.59
2023-02-03T15:00:37.605Z,100797.81
2023-02-03T15:03:35.216Z,100811.25
2023-02-03T15:06:06.159Z,100786.09
2023-02-03T15:08:40.831Z,100799.53
2023-02-03T15:11:30.127Z,100799.53
2023-02-03T15:14:19.747Z,100805.66
2023-02-03T15:16:56.004Z,100815.25
2023-02-03T15:19:30.821Z,100817.19
2023-02-03T15:21:59.253Z,100819.72
2023-02-03T15:24:35.063Z,100824.34
2023-02-03T15:27:03.396Z,100826.06
2023-02-03T15:29:34.495Z,100819.94
2023-02-03T15:32:12.420Z,100822.13
2023-02-03T15:34:48.851Z,100833.84
2023-02-03T15:37:27.822Z,100819.66
2023-02-03T15:40:02.808Z,100832.13
2023-02-03T15:42:39.571Z,100840.03
2023-02-03T15:45:27.996Z,100842.91
2023-02-03T15:48:00.921Z,100845.88
2023-02-03T15:50:36.526Z,100845.13
2023-02-03T15:53:11.524Z,100847.13
2023-02-03T15:55:45.516Z,100857.72
2023-02-03T15:58:21.658Z,100864.19
2023-02-03T16:00:53.815Z,100862.59
2023-02-03T16:03:29.704Z,100881.91
2023-02-03T16:06:08.433Z,100860.78
2023-02-03T16:08:43.329Z,100882.41
2023-02-03T16:11:30.659Z,100889.06
2023-02-03T16:14:01.713Z,100888.59
2023-02-03T16:16:36.366Z,100896.81
2023-02-03T16:19:11.944Z,100910.53
2023-02-03T16:21:55.423Z,100923.97
2023-02-03T16:24:40.879Z,100926.84
2023-02-03T16:27:32.075Z,100919.09
2023-02-03T16:30:43.312Z,100920.25
2023-02-03T16:33:35.719Z,100931.19
2023-02-03T16:36:31.614Z,100933.38
2023-02-03T16:39:24.781Z,100954.91
2023-02-03T16:42:15.914Z,100958.72
2023-02-03T16:45:03.700Z,100962.69
2023-02-03T16:47:51.428Z,100964.66
2023-02-03T16:50:40.850Z,100973.69
2023-02-03T16:53:15.994Z,100971.31
2023-02-03T16:55:47.290Z,100987.66
2023-02-03T16:58:15.755Z,100982.19
2023-02-03T17:00:48.271Z,100990.81
2023-02-03T17:03:17.820Z,100997.53
2023-02-03T17:05:48.162Z,101002.28
2023-02-03T17:08:18.281Z,101016.44
2023-02-03T17:10:49.462Z,101016.59
2023-02-03T17:13:21.189Z,101011.75
2023-02-03T17:15:52.977Z,101015.56
2023-02-03T17:18:22.249Z,101036.06
2023-02-03T17:20:50.834Z,101031.75
2023-02-03T17:23:19.366Z,101024.78
2023-02-03T17:25:51.386Z,101036.38
2023-02-03T17:28:19.899Z,101069.31
2023-02-03T17:30:58.603Z,101064.22
2023-02-03T17:33:27.739Z,101083.19
2023-02-03T17:36:09.642Z,101086.91
2023-02-03T17:55:18.827Z,101129.44
2023-02-03T17:57:48.874Z,101133.13
2023-02-03T18:00:18.296Z,101135.81
2023-02-03T18:02:50.953Z,101148.31
2023-02-03T18:05:19.974Z,101166.16
2023-02-03T18:10:21.589Z,101192.88
2023-02-03T18:12:51.486Z,101217.84
2023-02-03T18:15:20.130Z,101226.53
2023-02-03T18:17:48.416Z,101232.28
2023-02-03T18:20:16.883Z,101224.59
2023-02-03T18:22:46.124Z,101246.44
2023-02-03T18:25:17.657Z,101256.19
2023-02-03T18:27:46.143Z,101257.28
2023-02-03T18:30:18.345Z,101267.47
2023-02-03T18:32:47.828Z,101294.81
2023-02-03T18:35:17.258Z,101301.41
2023-02-03T18:37:46.166Z,101313.88
2023-02-03T18:40:14.614Z,101332.63
2023-02-03T18:42:42.891Z,101313.50
2023-02-03T18:45:12.518Z,101333.41
2023-02-03T18:47:42.217Z,101342.28
2023-02-03T18:50:11.300Z,101358.31
2023-02-03T18:52:39.750Z,101354.03
2023-02-03T18:55:09.462Z,101368.16
2023-02-03T18:57:37.925Z,101357.00
2023-02-03T19:00:07.797Z,101375.81
2023-02-03T19:02:38.126Z,101389.72
2023-02-03T19:05:09.760Z,101388.84
2023-02-03T19:07:38.127Z,101395.13
2023-02-03T19:10:07.253Z,101394.31
2023-02-03T19:12:35.525Z,101410.81
2023-02-03T19:15:05.507Z,101404.69
2023-02-03T19:17:34.407Z,101426.03
2023-02-03T19:20:03.620Z,101445.75
2023-02-03T19:22:34.490Z,101438.72
2023-02-03T19:25:02.848Z,101452.66
2023-02-03T19:27:32.133Z,101468.34
2023-02-03T19:30:00.629Z,101492.13
2023-02-03T19:32:29.197Z,101496.50
2023-02-03T19:34:57.508Z,101504.47
2023-02-03T19:37:26.847Z,101493.44
2023-02-03T19:39:56.752Z,101518.19
2023-02-03T19:42:25.030Z,101519.84
2023-02-03T19:44:53.672Z,101533.00
2023-02-03T19:47:22.234Z,101531.94
2023-02-03T19:49:50.697Z,101543.44
2023-02-03T19:52:19.117Z,101547.88
2023-02-03T19:54:47.477Z,101557.63
2023-02-03T19:57:17.132Z,101570.09
2023-02-03T19:59:45.415Z,101575.41
2023-02-03T20:02:16.017Z,101577.88
2023-02-03T20:04:45.127Z,101593.91
2023-02-03T20:07:14.467Z,101597.44
2023-02-03T20:09:42.836Z,101604.53
2023-02-03T20:12:12.162Z,101602.00
2023-02-03T20:14:41.836Z,101612.84
2023-02-03T20:17:10.097Z,101633.03
2023-02-03T20:19:38.467Z,101639.84
2023-02-03T20:22:06.844Z,101648.16
2023-02-03T20:24:35.215Z,101655.91
2023-02-03T20:27:03.799Z,101672.69
2023-02-03T20:29:33.146Z,101677.81
2023-02-03T20:32:06.819Z,101684.97
2023-02-03T20:34:35.296Z,101705.31
2023-02-03T20:37:03.743Z,101711.84
2023-02-03T20:39:32.073Z,101716.00
2023-02-03T20:42:00.523Z,101722.28
2023-02-03T20:44:28.981Z,101742.22
2023-02-03T20:46:57.420Z,101760.09
2023-02-03T20:49:27.347Z,101761.00
2023-02-03T20:51:56.294Z,101775.88
2023-02-03T20:54:25.705Z,101784.72
2023-02-03T20:56:53.982Z,101788.16
2023-02-03T20:59:22.330Z,101796.91
2023-02-03T21:02:07.887Z,101813.75
2023-02-03T21:04:55.719Z,101804.19
2023-02-03T21:07:24.144Z,101818.34
2023-02-03T21:09:52.606Z,101828.19
2023-02-03T21:12:21.092Z,101834.47
2023-02-03T21:14:50.194Z,101841.50
2023-02-03T21:17:23.304Z,101856.72
2023-02-03T21:19:55.215Z,101863.75
2023-02-03T21:22:26.338Z,101873.72
2023-02-03T21:24:57.491Z,101892.94
2023-02-03T21:27:29.691Z,101885.94
2023-02-03T21:30:00.181Z,101898.31
2023-02-03T21:32:38.689Z,101904.63
2023-02-03T21:35:26.535Z,101900.19
2023-02-03T21:38:01.964Z,101922.19
2023-02-03T21:40:33.334Z,101930.13
2023-02-03T21:43:03.381Z,101933.72
2023-02-03T21:45:43.519Z,101940.72
2023-02-03T21:48:32.131Z,101941.53
2023-02-03T21:51:16.230Z,101950.25
2023-02-03T21:53:53.873Z,101950.31
2023-02-03T21:56:25.120Z,101960.09
2023-02-03T21:58:58.993Z,101962.09
2023-02-03T22:01:35.621Z,101975.44
2023-02-03T22:04:06.520Z,101986.16
2023-02-03T22:06:45.033Z,102007.25
2023-02-03T22:09:15.572Z,101992.16
2023-02-03T22:11:44.118Z,102012.28
2023-02-03T22:14:13.724Z,102019.41
2023-02-03T22:16:42.350Z,102030.09
2023-02-03T22:19:11.507Z,102039.75
2023-02-03T22:21:41.304Z,102057.50
2023-02-03T22:24:09.734Z,102069.84
2023-02-03T22:26:38.200Z,102079.63
2023-02-03T22:29:06.759Z,102082.28
2023-02-03T22:31:35.179Z,102085.03
2023-02-03T22:34:03.576Z,102092.06
2023-02-03T22:36:31.961Z,102101.56
2023-02-03T22:39:01.655Z,102117.66
2023-02-03T22:41:30.013Z,102118.66
2023-02-03T22:43:58.341Z,102134.56
2023-02-03T22:46:26.897Z,102136.44
2023-02-03T22:48:55.198Z,102140.88
2023-02-03T22:51:23.550Z,102152.38
2023-02-03T22:53:51.928Z,102162.84
2023-02-03T22:56:23.459Z,102176.06
2023-02-03T22:58:51.941Z,102179.38
2023-02-03T23:01:23.336Z,102187.44
2023-02-03T23:03:51.658Z,102187.59
2023-02-03T23:06:20.028Z,102199.13
2023-02-03T23:08:48.348Z,102204.41
2023-02-03T23:11:16.756Z,102204.41
2023-02-03T23:13:48.371Z,102214.13
2023-02-03T23:16:16.800Z,102219.44
2023-02-03T23:18:45.158Z,102230.78
2023-02-03T23:21:13.524Z,102246.69
2023-02-03T23:23:41.973Z,102252.78
2023-02-03T23:26:10.347Z,102259.09
2023-02-03T23:28:39.656Z,102268.72
2023-02-03T23:31:09.423Z,102266.19
2023-02-03T23:33:37.873Z,102280.25
2023-02-03T23:36:06.133Z,102291.78
2023-02-03T23:38:36.213Z,102299.91
2023-02-03T23:41:04.466Z,102310.53
2023-02-03T23:43:32.833Z,102316.78
2023-02-03T23:46:01.194Z,102320.31
2023-02-03T23:48:30.849Z,102336.19
2023-02-03T23:50:59.152Z,102337.91
2023-02-03T23:53:27.586Z,102345.03
2023-02-03T23:55:55.978Z,102357.44
2023-02-03T23:58:24.323Z,102356.47
